createdAt,value
2024-02-01T00:01:53.573Z,15.82
2024-02-01T00:04:22.308Z,15.61
2024-02-01T00:06:49.712Z,15.15
2024-02-01T00:09:18.249Z,14.54
2024-02-01T00:11:45.088Z,14.10
2024-02-01T00:14:12.389Z,13.85
2024-02-01T00:16:39.161Z,13.97
2024-02-01T00:19:06.387Z,15.94
2024-02-01T00:21:34.482Z,16.06
2024-02-01T00:24:01.335Z,16.86
2024-02-01T00:26:30.223Z,15.99
2024-02-01T00:29:17.523Z,14.72
2024-02-01T00:31:44.335Z,15.11
2024-02-01T00:34:11.432Z,14.83
2024-02-01T00:36:38.382Z,14.82
2024-02-01T00:39:06.177Z,14.49
2024-02-01T00:41:33.479Z,14.55
2024-02-01T00:44:00.291Z,14.73
2024-02-01T00:46:27.628Z,13.86
2024-02-01T00:48:54.512Z,15.04
2024-02-01T00:51:21.464Z,14.46
2024-02-01T00:53:54.909Z,15.11
2024-02-01T00:56:23.078Z,16.59
2024-02-01T00:58:50.415Z,16.58
2024-02-01T01:01:18.239Z,15.48
2024-02-01T01:03:46.390Z,16.13
2024-02-01T01:06:32.850Z,16.03
2024-02-01T01:08:59.768Z,16.80
2024-02-01T01:11:27.627Z,17.02
2024-02-01T01:13:54.759Z,16.52
2024-02-01T01:16:21.768Z,16.61
2024-02-01T01:18:48.777Z,16.92
2024-02-01T01:21:16.481Z,15.96
2024-02-01T01:23:43.798Z,16.05
2024-02-01T01:26:11.767Z,16.67
2024-02-01T01:28:39.775Z,16.42
2024-02-01T01:31:07.870Z,16.28
2024-02-01T01:33:35.001Z,16.88
2024-02-01T01:36:02.160Z,15.96
2024-02-01T01:38:29.414Z,15.04
2024-02-01T01:41:09.206Z,15.80
2024-02-01T01:43:37.111Z,15.01
2024-02-01T01:46:04.550Z,14.56
2024-02-01T01:48:34.187Z,14.82
2024-02-01T01:51:01.695Z,14.57
2024-02-01T01:53:31.751Z,14.89
2024-02-01T01:55:58.893Z,15.12
2024-02-01T01:58:27.658Z,14.95
2024-02-01T02:00:58.739Z,14.93
2024-02-01T02:03:26.633Z,14.10
2024-02-01T02:05:54.660Z,14.71
2024-02-01T02:08:22.070Z,14.41
2024-02-01T02:10:49.458Z,14.77
2024-02-01T02:13:16.363Z,13.95
2024-02-01T02:15:44.746Z,14.67
2024-02-01T02:18:13.204Z,14.77
2024-02-01T02:20:41.349Z,15.47
2024-02-01T02:23:08.165Z,14.22
2024-02-01T02:25:35.514Z,14.25
2024-02-01T02:28:02.350Z,14.05
2024-02-01T02:30:29.815Z,15.43
2024-02-01T02:32:57.574Z,15.16
2024-02-01T02:35:24.837Z,14.53
2024-02-01T02:37:52.380Z,14.56
2024-02-01T02:40:20.584Z,15.00
2024-02-01T02:42:47.995Z,14.39
2024-02-01T02:45:14.936Z,15.06
2024-02-01T02:47:42.572Z,15.45
2024-02-01T02:50:10.516Z,15.88
2024-02-01T02:52:39.489Z,16.29
2024-02-01T02:55:07.000Z,16.72
2024-02-01T02:57:37.096Z,17.15
2024-02-01T03:00:11.430Z,17.17
2024-02-01T03:02:41.759Z,17.21
2024-02-01T03:05:08.727Z,17.98
2024-02-01T03:07:35.877Z,18.07
2024-02-01T03:10:04.506Z,18.04
2024-02-01T03:12:31.713Z,18.43
2024-02-01T03:14:59.115Z,18.39
2024-02-01T03:17:27.087Z,18.86
2024-02-01T03:19:54.360Z,19.85
2024-02-01T03:22:22.244Z,19.95
2024-02-01T03:24:50.307Z,19.33
2024-02-01T03:27:18.297Z,20.34
2024-02-01T03:29:45.555Z,20.00
2024-02-01T03:32:15.293Z,20.22
2024-02-01T03:34:42.591Z,19.80
2024-02-01T03:37:09.632Z,19.71
2024-02-01T03:39:36.874Z,19.37
2024-02-01T03:42:04.449Z,19.63
2024-02-01T03:44:31.272Z,19.26
2024-02-01T03:46:58.446Z,18.27
2024-02-01T03:49:26.928Z,19.10
2024-02-01T03:51:54.179Z,18.91
2024-02-01T03:54:21.391Z,18.85
2024-02-01T03:56:48.577Z,17.97
2024-02-01T03:59:15.868Z,18.78
2024-02-01T04:01:43.153Z,18.13
2024-02-01T04:04:11.051Z,17.96
2024-02-01T04:06:38.150Z,18.31
2024-02-01T04:09:06.252Z,18.04
2024-02-01T04:11:34.621Z,18.31
2024-02-01T04:14:02.339Z,17.48
2024-02-01T04:16:31.954Z,18.12
2024-02-01T04:18:59.290Z,18.54
2024-02-01T04:21:26.696Z,17.86
2024-02-01T04:23:53.698Z,17.97
2024-02-01T04:26:20.813Z,16.81
2024-02-01T04:28:48.651Z,17.13
2024-02-01T04:31:15.599Z,17.00
2024-02-01T04:33:42.966Z,17.42
2024-02-01T04:36:10.347Z,17.97
2024-02-01T04:38:38.706Z,18.08
2024-02-01T04:41:05.712Z,17.97
2024-02-01T04:43:32.581Z,18.45
2024-02-01T04:46:02.105Z,17.77
2024-02-01T04:48:29.227Z,17.44
2024-02-01T04:50:56.244Z,17.94
2024-02-01T04:53:24.966Z,17.72
2024-02-01T04:55:52.152Z,17.48
2024-02-01T04:58:20.868Z,18.21
2024-02-01T05:01:26.708Z,18.44
2024-02-01T05:03:54.636Z,18.50
2024-02-01T05:06:21.744Z,18.76
2024-02-01T05:08:49.186Z,19.38
2024-02-01T05:11:18.235Z,18.01
2024-02-01T05:13:45.161Z,18.37
2024-02-01T05:16:12.755Z,18.58
2024-02-01T05:18:42.553Z,18.70
2024-02-01T05:21:09.566Z,19.23
2024-02-01T05:23:37.475Z,18.86
2024-02-01T05:26:04.509Z,19.67
2024-02-01T05:28:32.978Z,20.51
2024-02-01T05:31:00.144Z,20.01
2024-02-01T05:33:27.015Z,20.50
2024-02-01T05:35:55.088Z,20.08
2024-02-01T05:38:23.366Z,20.10
2024-02-01T05:40:50.118Z,20.31
2024-02-01T05:43:18.275Z,20.77
2024-02-01T05:45:45.040Z,20.35
2024-02-01T05:48:11.934Z,19.95
2024-02-01T05:50:39.933Z,19.59
2024-02-01T05:53:07.492Z,19.57
2024-02-01T05:55:37.102Z,19.38
2024-02-01T05:58:05.499Z,18.68
2024-02-01T06:00:33.671Z,19.00
2024-02-01T06:03:00.583Z,18.49
2024-02-01T06:05:28.161Z,18.65
2024-02-01T06:07:56.868Z,17.87
2024-02-01T06:10:24.088Z,18.17
2024-02-01T06:12:51.339Z,18.23
2024-02-01T06:15:18.828Z,18.30
2024-02-01T06:17:46.973Z,18.09
2024-02-01T06:20:14.297Z,18.77
2024-02-01T06:22:41.251Z,21.31
2024-02-01T06:25:08.762Z,21.20
2024-02-01T06:27:35.613Z,19.08
2024-02-01T06:30:03.290Z,18.30
2024-02-01T06:32:30.667Z,18.10
2024-02-01T06:34:57.883Z,18.45
2024-02-01T06:37:26.182Z,18.69
2024-02-01T06:39:55.016Z,19.10
2024-02-01T06:42:23.370Z,18.89
2024-02-01T06:44:51.514Z,18.99
2024-02-01T06:47:18.355Z,18.37
2024-02-01T06:49:46.300Z,20.27
2024-02-01T06:52:13.619Z,18.83
2024-02-01T06:55:03.516Z,19.09
2024-02-01T06:57:33.452Z,19.35
2024-02-01T07:00:00.528Z,19.54
2024-02-01T07:02:29.066Z,19.37
2024-02-01T07:04:56.354Z,19.33
2024-02-01T07:07:23.320Z,18.43
2024-02-01T07:09:50.924Z,18.11
2024-02-01T07:12:18.680Z,18.35
2024-02-01T07:14:48.415Z,18.05
2024-02-01T07:17:16.492Z,18.16
2024-02-01T07:19:44.449Z,17.40
2024-02-01T07:22:14.142Z,17.26
2024-02-01T07:24:41.485Z,16.75
2024-02-01T07:27:11.372Z,17.14
2024-02-01T07:29:39.383Z,18.03
2024-02-01T07:32:06.812Z,18.07
2024-02-01T07:34:33.664Z,18.69
2024-02-01T07:37:01.074Z,19.26
2024-02-01T07:39:28.126Z,19.71
2024-02-01T07:41:55.325Z,20.07
2024-02-01T07:44:22.516Z,17.66
2024-02-01T07:46:52.492Z,17.52
2024-02-01T07:49:19.451Z,19.43
2024-02-01T07:51:46.550Z,19.51
2024-02-01T07:54:13.730Z,19.80
2024-02-01T07:56:40.849Z,19.65
2024-02-01T07:59:07.675Z,19.90
2024-02-01T08:01:34.629Z,19.79
2024-02-01T08:04:02.130Z,20.12
2024-02-01T08:06:29.613Z,20.30
2024-02-01T08:08:56.926Z,21.28
2024-02-01T08:11:23.994Z,34.77
2024-02-01T08:13:51.089Z,25.26
2024-02-01T08:16:18.234Z,22.19
2024-02-01T08:18:47.032Z,21.61
2024-02-01T08:21:14.756Z,21.43
2024-02-01T08:23:42.615Z,39.03
2024-02-01T08:26:11.007Z,24.35
2024-02-01T08:28:38.336Z,20.34
2024-02-01T08:31:05.537Z,20.07
2024-02-01T08:33:33.578Z,20.69
2024-02-01T08:36:03.640Z,22.62
2024-02-01T08:38:32.092Z,25.80
2024-02-01T08:41:01.922Z,30.40
2024-02-01T08:43:30.587Z,26.28
2024-02-01T08:45:58.419Z,33.78
2024-02-01T08:48:25.866Z,25.75
2024-02-01T08:50:54.045Z,22.29
2024-02-01T08:53:20.908Z,21.66
2024-02-01T08:55:48.170Z,22.26
2024-02-01T08:58:16.259Z,21.22
2024-02-01T09:00:43.700Z,20.72
2024-02-01T09:03:11.798Z,20.76
2024-02-01T09:05:39.992Z,23.29
2024-02-01T09:08:11.105Z,29.70
2024-02-01T09:10:38.020Z,24.63
2024-02-01T09:13:05.866Z,19.20
2024-02-01T09:15:33.947Z,33.12
2024-02-01T09:18:02.185Z,20.66
2024-02-01T09:20:29.935Z,19.08
2024-02-01T09:22:59.821Z,18.99
2024-02-01T09:25:27.073Z,19.04
2024-02-01T09:27:54.222Z,18.12
2024-02-01T09:30:24.565Z,17.54
2024-02-01T09:32:51.706Z,17.41
2024-02-01T09:37:46.886Z,17.76
2024-02-01T09:40:13.666Z,17.44
2024-02-01T09:42:40.622Z,16.62
2024-02-01T09:45:08.688Z,17.71
2024-02-01T09:47:36.771Z,18.02
2024-02-01T09:50:03.799Z,17.66
2024-02-01T09:52:30.786Z,20.32
2024-02-01T09:54:58.129Z,19.72
2024-02-01T09:57:25.054Z,18.42
2024-02-01T09:59:53.520Z,24.81
2024-02-01T10:02:22.466Z,21.50
2024-02-01T10:04:50.121Z,21.81
2024-02-01T10:07:16.932Z,23.19
2024-02-01T10:09:44.885Z,18.41
2024-02-01T10:12:12.627Z,17.96
2024-02-01T10:14:40.173Z,15.56
2024-02-01T10:17:07.269Z,15.73
2024-02-01T10:19:34.744Z,15.84
2024-02-01T10:22:11.701Z,15.21
2024-02-01T10:24:39.768Z,15.63
2024-02-01T10:27:06.866Z,15.91
2024-02-01T10:29:34.125Z,15.84
2024-02-01T10:32:02.721Z,14.81
2024-02-01T10:34:30.133Z,14.46
2024-02-01T10:36:57.534Z,13.72
2024-02-01T10:39:24.436Z,14.22
2024-02-01T10:41:53.746Z,14.60
2024-02-01T10:44:22.190Z,16.20
2024-02-01T10:46:52.486Z,18.36
2024-02-01T10:49:21.360Z,22.96
2024-02-01T10:51:48.894Z,27.24
2024-02-01T10:54:16.030Z,28.85
2024-02-01T10:56:43.256Z,29.28
2024-02-01T10:59:10.025Z,30.10
2024-02-01T11:01:37.574Z,29.33
2024-02-01T11:04:06.654Z,31.12
2024-02-01T11:10:27.821Z,31.22
2024-02-01T11:12:56.069Z,30.59
2024-02-01T11:15:29.699Z,30.78
2024-02-01T11:17:57.181Z,31.96
2024-02-01T11:20:25.369Z,32.07
2024-02-01T11:22:57.500Z,31.59
2024-02-01T11:25:28.781Z,30.77
2024-02-01T11:27:55.678Z,31.75
2024-02-01T11:30:26.535Z,30.90
2024-02-01T11:32:56.391Z,31.09
2024-02-01T11:38:09.383Z,31.20
2024-02-01T11:40:38.298Z,31.26
2024-02-01T11:43:05.107Z,31.97
2024-02-01T11:45:32.140Z,32.75
2024-02-01T11:47:59.350Z,32.25
2024-02-01T11:50:27.829Z,31.26
2024-02-01T11:52:58.819Z,32.41
2024-02-01T11:55:27.640Z,32.07
2024-02-01T11:57:54.555Z,32.74
2024-02-01T12:00:28.853Z,32.76
2024-02-01T12:03:06.755Z,33.05
2024-02-01T12:05:34.150Z,31.50
2024-02-01T12:08:04.085Z,31.86
2024-02-01T12:10:31.271Z,32.51
2024-02-01T12:12:58.871Z,32.17
2024-02-01T12:15:26.286Z,31.80
2024-02-01T12:17:53.656Z,30.98
2024-02-01T12:20:20.546Z,28.79
2024-02-01T12:22:49.249Z,26.21
2024-02-01T12:25:17.439Z,26.97
2024-02-01T12:27:45.124Z,26.89
2024-02-01T12:30:13.377Z,27.23
2024-02-01T12:32:43.648Z,28.71
2024-02-01T12:35:14.447Z,29.48
2024-02-01T12:37:42.969Z,28.55
2024-02-01T12:40:18.579Z,28.17
2024-02-01T12:42:45.403Z,28.41
2024-02-01T12:45:12.648Z,28.47
2024-02-01T12:47:39.484Z,28.80
2024-02-01T12:50:07.634Z,28.59
2024-02-01T12:52:35.884Z,29.43
2024-02-01T12:55:02.686Z,29.40
2024-02-01T12:57:30.534Z,29.99
2024-02-01T12:59:57.354Z,29.28
2024-02-01T13:02:24.889Z,28.42
2024-02-01T13:04:52.691Z,26.39
2024-02-01T13:07:22.056Z,26.98
2024-02-01T13:09:49.433Z,26.80
2024-02-01T13:12:16.295Z,27.60
2024-02-01T13:14:43.150Z,26.64
2024-02-01T13:17:10.531Z,23.52
2024-02-01T13:19:37.531Z,22.04
2024-02-01T13:22:06.601Z,23.26
2024-02-01T13:24:33.426Z,24.96
2024-02-01T13:27:00.730Z,24.80
2024-02-01T13:29:27.653Z,25.11
2024-02-01T13:32:11.710Z,24.45
2024-02-01T13:34:41.814Z,23.94
2024-02-01T13:37:11.527Z,22.97
2024-02-01T13:39:44.393Z,23.04
2024-02-01T13:42:13.007Z,22.32
2024-02-01T13:44:39.986Z,20.44
2024-02-01T13:47:10.010Z,20.55
2024-02-01T13:49:37.063Z,20.35
2024-02-01T13:52:05.515Z,20.76
2024-02-01T13:54:32.784Z,22.07
2024-02-01T13:57:01.847Z,22.17
2024-02-01T13:59:28.602Z,22.26
2024-02-01T14:01:55.473Z,22.91
2024-02-01T14:04:22.735Z,21.84
2024-02-01T14:06:49.548Z,19.90
2024-02-01T14:09:16.929Z,16.42
2024-02-01T14:11:43.784Z,15.97
2024-02-01T14:14:10.652Z,13.04
2024-02-01T14:16:43.075Z,13.74
2024-02-01T14:19:10.067Z,8.50
2024-02-01T14:21:37.075Z,8.41
2024-02-01T14:24:04.907Z,7.44
2024-02-01T14:26:31.829Z,7.77
2024-02-01T14:28:58.636Z,6.73
2024-02-01T14:31:25.929Z,6.59
2024-02-01T14:33:53.347Z,6.18
2024-02-01T14:36:20.296Z,6.26
2024-02-01T14:38:47.708Z,6.34
2024-02-01T14:41:14.605Z,5.97
2024-02-01T14:43:41.462Z,6.40
2024-02-01T14:46:08.731Z,6.66
2024-02-01T14:48:35.959Z,6.75
2024-02-01T14:51:03.571Z,7.19
2024-02-01T14:53:32.213Z,7.92
2024-02-01T14:55:59.451Z,8.46
2024-02-01T14:58:26.491Z,8.42
2024-02-01T15:00:53.370Z,7.51
2024-02-01T15:06:02.650Z,7.16
2024-02-01T15:08:29.460Z,7.34
2024-02-01T15:11:32.577Z,6.64
2024-02-01T15:14:01.161Z,6.51
2024-02-01T15:16:29.112Z,6.58
2024-02-01T15:18:55.936Z,6.22
2024-02-01T15:21:23.919Z,6.08
2024-02-01T15:23:51.332Z,6.22
2024-02-01T15:26:18.626Z,6.76
2024-02-01T15:28:45.483Z,9.56
2024-02-01T15:31:12.345Z,10.28
2024-02-01T15:33:39.583Z,12.71
2024-02-01T15:36:08.112Z,14.30
2024-02-01T15:38:38.590Z,15.28
2024-02-01T15:41:05.420Z,15.83
2024-02-01T15:43:32.375Z,14.14
2024-02-01T15:45:59.498Z,12.64
2024-02-01T15:48:27.737Z,11.56
2024-02-01T15:50:56.089Z,10.21
2024-02-01T15:53:23.071Z,10.44
2024-02-01T15:55:50.207Z,10.18
2024-02-01T15:58:17.308Z,10.63
2024-02-01T16:00:44.111Z,10.20
2024-02-01T16:03:11.484Z,9.08
2024-02-01T16:06:11.025Z,9.17
2024-02-01T16:08:51.171Z,10.35
2024-02-01T16:11:19.552Z,11.70
2024-02-01T16:13:49.112Z,14.58
2024-02-01T16:16:44.191Z,8.34
2024-02-01T16:19:23.441Z,7.52
2024-02-01T16:21:50.504Z,7.33
2024-02-01T16:24:40.857Z,7.15
2024-02-01T16:27:30.371Z,6.63
2024-02-01T16:30:20.285Z,6.89
2024-02-01T16:32:49.948Z,8.06
2024-02-01T16:35:47.478Z,15.32
2024-02-01T16:38:17.000Z,13.71
2024-02-01T16:40:43.843Z,11.36
2024-02-01T16:43:10.958Z,10.02
2024-02-01T16:45:38.819Z,8.51
2024-02-01T16:48:11.756Z,8.41
2024-02-01T16:50:46.187Z,8.16
2024-02-01T16:53:25.804Z,8.09
2024-02-01T16:55:55.798Z,8.09
2024-02-01T16:58:52.248Z,8.51
2024-02-01T17:01:41.434Z,8.21
2024-02-01T17:04:13.925Z,8.53
2024-02-01T17:06:40.949Z,9.07
2024-02-01T17:09:07.911Z,9.66
2024-02-01T17:11:35.377Z,9.55
2024-02-01T17:14:08.054Z,9.21
2024-02-01T17:16:57.282Z,10.01
2024-02-01T17:19:24.571Z,8.64
2024-02-01T17:21:52.010Z,8.00
2024-02-01T17:24:23.088Z,7.57
2024-02-01T17:26:50.507Z,8.25
2024-02-01T17:29:18.746Z,6.75
2024-02-01T17:31:51.496Z,7.15
2024-02-01T17:34:26.707Z,6.67
2024-02-01T17:36:55.953Z,6.36
2024-02-01T17:40:06.416Z,6.16
2024-02-01T17:42:37.972Z,6.23
2024-02-01T17:45:24.331Z,6.26
2024-02-01T17:48:01.854Z,6.87
2024-02-01T17:50:38.458Z,6.43
2024-02-01T17:53:44.437Z,7.16
2024-02-01T17:56:17.978Z,6.99
2024-02-01T17:58:44.742Z,6.87
2024-02-01T18:01:24.403Z,7.16
2024-02-01T18:03:57.110Z,7.09
2024-02-01T18:06:42.405Z,7.51
2024-02-01T18:09:33.333Z,7.19
2024-02-01T18:12:02.407Z,7.42
2024-02-01T18:14:33.423Z,7.95
2024-02-01T18:17:01.351Z,9.23
2024-02-01T18:19:29.804Z,9.71
2024-02-01T18:21:56.755Z,8.52
2024-02-01T18:24:40.071Z,8.37
2024-02-01T18:27:08.547Z,8.03
2024-02-01T18:29:54.495Z,7.94
2024-02-01T18:32:21.744Z,8.41
2024-02-01T18:34:48.967Z,8.16
2024-02-01T18:37:16.277Z,7.87
2024-02-01T18:39:43.616Z,8.16
2024-02-01T18:42:38.130Z,8.65
2024-02-01T18:45:36.124Z,8.48
2024-02-01T18:48:03.379Z,8.27
2024-02-01T18:50:35.051Z,8.39
2024-02-01T18:53:02.038Z,8.76
2024-02-01T18:55:37.662Z,8.14
2024-02-01T18:58:05.429Z,9.20
2024-02-01T19:00:41.356Z,8.34
2024-02-01T19:03:32.458Z,9.21
2024-02-01T19:06:25.891Z,9.30
2024-02-01T19:08:55.633Z,6.92
2024-02-01T19:11:23.882Z,6.53
2024-02-01T19:14:03.181Z,6.25
2024-02-01T19:16:30.809Z,4.79
2024-02-01T19:19:01.784Z,5.06
2024-02-01T19:21:31.746Z,5.11
2024-02-01T19:24:00.258Z,4.54
2024-02-01T19:26:28.271Z,4.47
2024-02-01T19:28:57.108Z,4.84
2024-02-01T19:31:24.271Z,4.49
2024-02-01T19:34:02.037Z,4.55
2024-02-01T19:36:34.474Z,4.60
2024-02-01T19:39:09.110Z,4.71
2024-02-01T19:41:41.079Z,5.69
2024-02-01T19:44:09.672Z,3.98
2024-02-01T19:46:37.069Z,3.50
2024-02-01T19:49:07.493Z,3.32
2024-02-01T19:51:35.357Z,3.14
2024-02-01T19:54:02.336Z,3.23
2024-02-01T19:56:29.888Z,2.66
2024-02-01T19:58:57.262Z,2.73
2024-02-01T20:04:42.545Z,2.35
2024-02-01T20:07:12.321Z,2.91
2024-02-01T20:09:39.578Z,2.82
2024-02-01T20:12:06.927Z,3.38
2024-02-01T20:14:35.673Z,3.54
2024-02-01T20:17:05.876Z,2.94
2024-02-01T20:19:33.329Z,3.28
2024-02-01T20:22:01.548Z,3.31
2024-02-01T20:24:29.739Z,2.95
2024-02-01T20:26:56.977Z,2.62
2024-02-01T20:29:24.123Z,2.61
2024-02-01T20:31:51.296Z,2.75
2024-02-01T20:34:38.650Z,2.67
2024-02-01T20:37:08.818Z,2.43
2024-02-01T20:39:36.668Z,2.65
2024-02-01T20:42:18.603Z,2.98
2024-02-01T20:44:46.656Z,2.55
2024-02-01T20:47:20.286Z,2.16
2024-02-01T20:49:59.545Z,2.15
2024-02-01T20:52:35.926Z,2.29
2024-02-01T20:55:06.208Z,2.03
2024-02-01T20:57:43.118Z,2.00
2024-02-01T21:00:26.185Z,2.28
2024-02-01T21:03:24.147Z,2.21
2024-02-01T21:06:16.211Z,2.24
2024-02-01T21:22:48.539Z,2.32
2024-02-01T21:25:37.613Z,1.96
2024-02-01T21:28:06.913Z,1.52
2024-02-01T21:30:34.598Z,1.78
2024-02-01T21:33:01.949Z,1.91
2024-02-01T21:35:50.293Z,1.77
2024-02-01T21:38:17.366Z,1.97
2024-02-01T21:40:44.282Z,1.67
2024-02-01T21:43:17.659Z,1.91
2024-02-01T21:45:51.758Z,1.82
2024-02-01T21:48:19.329Z,2.68
2024-02-01T21:50:46.735Z,3.66
2024-02-01T21:53:16.332Z,4.11
2024-02-01T21:55:43.457Z,6.36
2024-02-01T21:58:11.909Z,8.47
2024-02-01T22:00:38.834Z,8.62
2024-02-01T22:03:05.728Z,9.40
2024-02-01T22:05:32.680Z,10.29
2024-02-01T22:08:01.418Z,7.70
2024-02-01T22:10:29.116Z,3.02
2024-02-01T22:12:56.501Z,2.80
2024-02-01T22:15:23.442Z,2.27
2024-02-01T22:17:50.458Z,1.95
2024-02-01T22:20:17.343Z,1.65
2024-02-01T22:22:44.140Z,1.68
2024-02-01T22:25:11.143Z,1.63
2024-02-01T22:27:37.963Z,1.77
2024-02-01T22:30:07.991Z,1.75
2024-02-01T22:32:35.072Z,1.69
2024-02-01T22:35:02.284Z,1.79
2024-02-01T22:37:30.796Z,1.69
2024-02-01T22:39:57.753Z,1.73
2024-02-01T22:42:24.719Z,1.71
2024-02-01T22:44:51.720Z,1.83
2024-02-01T22:47:18.606Z,1.74
2024-02-01T22:49:45.919Z,1.96
2024-02-01T22:52:13.359Z,1.69
2024-02-01T22:54:40.621Z,1.79
2024-02-01T22:57:08.903Z,1.72
2024-02-01T22:59:36.068Z,1.71
2024-02-01T23:02:04.129Z,1.73
2024-02-01T23:04:30.982Z,2.82
2024-02-01T23:06:57.801Z,4.18
2024-02-01T23:09:25.066Z,7.01
2024-02-01T23:11:52.656Z,7.16
2024-02-01T23:14:20.216Z,7.04
2024-02-01T23:16:47.029Z,6.97
2024-02-01T23:19:14.400Z,7.65
2024-02-01T23:21:41.313Z,7.59
2024-02-01T23:24:09.444Z,7.08
2024-02-01T23:26:36.712Z,7.23
2024-02-01T23:29:03.585Z,8.44
2024-02-01T23:31:30.433Z,8.91
2024-02-01T23:33:58.631Z,5.44
2024-02-01T23:36:25.626Z,4.03
2024-02-01T23:38:52.421Z,4.18
2024-02-01T23:41:19.187Z,3.84
2024-02-01T23:43:45.999Z,2.91
2024-02-01T23:46:12.894Z,2.08
2024-02-01T23:48:39.805Z,2.13
2024-02-01T23:51:07.439Z,2.18
2024-02-01T23:53:34.486Z,2.63
2024-02-01T23:56:01.600Z,2.20
2024-02-01T23:58:28.886Z,2.63
